createdAt,value
2018-03-04T00:00:03.612Z,67.20
2018-03-04T00:02:31.873Z,73.50
2018-03-04T00:05:00.159Z,67.07
2018-03-04T00:07:28.411Z,73.17
2018-03-04T00:09:56.671Z,66.70
2018-03-04T00:12:24.952Z,84.50
2018-03-04T00:14:53.224Z,70.27
2018-03-04T00:17:21.509Z,68.20
2018-03-04T00:19:49.751Z,73.37
2018-03-04T00:22:18.772Z,67.13
2018-03-04T00:24:47.048Z,70.70
2018-03-04T00:27:15.314Z,76.43
2018-03-04T00:29:44.416Z,74.97
2018-03-04T00:32:14.344Z,73.30
2018-03-04T00:34:42.596Z,75.00
2018-03-04T00:37:11.633Z,67.90
2018-03-04T00:39:39.901Z,70.70
2018-03-04T00:42:08.177Z,64.07
2018-03-04T00:44:36.433Z,70.73
2018-03-04T00:47:04.697Z,72.97
2018-03-04T00:49:32.972Z,67.23
2018-03-04T00:52:01.233Z,67.23
2018-03-04T00:54:30.256Z,75.00
2018-03-04T00:56:58.540Z,72.27
2018-03-04T00:59:26.808Z,70.83
2018-03-04T01:01:55.091Z,68.97
2018-03-04T01:04:23.371Z,78.13
2018-03-04T01:06:51.900Z,69.17
2018-03-04T01:09:20.164Z,73.40
2018-03-04T01:11:48.440Z,70.67
2018-03-04T01:14:16.700Z,74.50
2018-03-04T01:16:45.028Z,62.67
2018-03-04T01:19:14.053Z,69.57
2018-03-04T01:21:42.325Z,74.43
2018-03-04T01:24:10.593Z,71.00
2018-03-04T01:26:38.848Z,75.60
2018-03-04T01:29:07.900Z,72.80
2018-03-04T01:31:36.162Z,75.80
2018-03-04T01:34:04.448Z,68.50
2018-03-04T01:36:32.704Z,81.83
2018-03-04T01:39:00.980Z,80.90
2018-03-04T01:41:29.256Z,72.63
2018-03-04T01:43:57.519Z,68.77
2018-03-04T01:46:25.780Z,77.87
2018-03-04T01:48:54.065Z,65.30
2018-03-04T01:51:22.328Z,75.73
2018-03-04T01:53:51.352Z,70.30
2018-03-04T01:56:19.631Z,76.90
2018-03-04T01:58:47.902Z,74.70
2018-03-04T02:01:16.168Z,65.33
2018-03-04T02:03:44.446Z,72.47
2018-03-04T02:06:12.692Z,80.30
2018-03-04T02:08:41.839Z,78.83
2018-03-04T02:11:10.089Z,74.37
2018-03-04T02:13:38.360Z,68.50
2018-03-04T02:16:06.946Z,74.10
2018-03-04T02:18:35.216Z,79.20
2018-03-04T02:21:03.491Z,70.60
2018-03-04T02:23:31.766Z,68.63
2018-03-04T02:26:00.021Z,73.97
2018-03-04T02:28:29.062Z,84.20
2018-03-04T02:30:57.314Z,77.07
2018-03-04T02:33:25.602Z,70.53
2018-03-04T02:35:53.889Z,72.60
2018-03-04T02:38:22.144Z,70.50
2018-03-04T02:40:50.405Z,75.50
2018-03-04T02:43:18.693Z,79.53
2018-03-04T02:45:47.012Z,76.90
2018-03-04T02:48:15.279Z,80.20
2018-03-04T02:50:43.565Z,72.40
2018-03-04T02:53:11.831Z,76.93
2018-03-04T02:55:40.081Z,72.13
2018-03-04T02:58:08.373Z,70.03
2018-03-04T03:00:36.645Z,76.40
2018-03-04T03:03:04.925Z,69.70
2018-03-04T03:05:33.217Z,69.20
2018-03-04T03:08:01.480Z,63.58
2018-03-04T03:10:29.768Z,78.00
2018-03-04T03:12:58.029Z,90.27
2018-03-04T03:15:26.289Z,85.27
2018-03-04T03:17:54.584Z,77.37
2018-03-04T03:20:22.836Z,74.13
2018-03-04T03:22:51.116Z,77.80
2018-03-04T03:25:19.401Z,85.27
2018-03-04T03:27:47.663Z,79.57
2018-03-04T03:30:15.916Z,76.37
2018-03-04T03:32:44.959Z,78.17
2018-03-04T03:35:13.216Z,79.63
2018-03-04T03:37:41.485Z,102.83
2018-03-04T03:40:09.772Z,77.83
2018-03-04T03:42:38.027Z,81.53
2018-03-04T03:45:06.288Z,85.60
2018-03-04T03:47:35.360Z,78.20
2018-03-04T03:50:03.632Z,78.97
2018-03-04T03:52:31.904Z,86.43
2018-03-04T03:55:00.190Z,70.93
2018-03-04T03:57:28.522Z,72.20
2018-03-04T03:59:56.772Z,84.50
2018-03-04T04:02:25.822Z,77.53
2018-03-04T04:04:54.233Z,82.20
2018-03-04T04:07:23.261Z,75.60
2018-03-04T04:09:51.536Z,78.80
2018-03-04T04:12:19.814Z,84.43
2018-03-04T04:14:48.072Z,80.50
2018-03-04T04:17:16.359Z,76.87
2018-03-04T04:19:44.699Z,87.00
2018-03-04T04:22:13.032Z,79.50
2018-03-04T04:24:41.305Z,83.63
2018-03-04T04:27:09.552Z,81.10
2018-03-04T04:29:38.576Z,77.60
2018-03-04T04:32:06.861Z,74.67
2018-03-04T04:34:35.226Z,75.97
2018-03-04T04:37:03.489Z,85.93
2018-03-04T04:39:31.766Z,87.57
2018-03-04T04:42:00.037Z,81.23
2018-03-04T04:44:28.297Z,69.57
2018-03-04T04:46:57.329Z,86.50
2018-03-04T04:49:25.592Z,82.53
2018-03-04T04:51:53.869Z,70.80
2018-03-04T04:54:22.132Z,87.57
2018-03-04T04:56:50.420Z,72.73
2018-03-04T04:59:18.696Z,69.70
2018-03-04T05:01:47.000Z,75.93
2018-03-04T05:04:15.346Z,80.83
2018-03-04T05:06:43.634Z,87.20
2018-03-04T05:09:11.891Z,75.20
2018-03-04T05:11:40.176Z,81.93
2018-03-04T05:14:08.484Z,88.45
2018-03-04T05:16:36.740Z,79.20
2018-03-04T05:19:05.016Z,83.10
2018-03-04T05:21:33.293Z,77.63
2018-03-04T05:24:01.560Z,76.47
2018-03-04T05:26:29.835Z,80.33
2018-03-04T05:28:58.105Z,92.53
2018-03-04T05:31:26.388Z,91.60
2018-03-04T05:33:54.673Z,81.33
2018-03-04T05:36:22.928Z,85.40
2018-03-04T05:38:51.203Z,93.43
2018-03-04T05:41:19.503Z,83.77
2018-03-04T05:43:47.768Z,95.60
2018-03-04T05:46:16.041Z,85.97
2018-03-04T05:48:44.295Z,95.90
2018-03-04T05:51:13.322Z,81.33
2018-03-04T05:53:41.607Z,100.90
2018-03-04T05:56:09.881Z,83.23
2018-03-04T05:58:38.131Z,90.10
2018-03-04T06:01:06.468Z,86.03
2018-03-04T06:03:34.706Z,108.83
2018-03-04T06:06:03.020Z,82.03
2018-03-04T06:08:31.400Z,106.30
2018-03-04T06:11:01.267Z,100.97
2018-03-04T06:13:29.528Z,99.70
2018-03-04T06:15:57.811Z,110.50
2018-03-04T06:18:26.081Z,104.93
2018-03-04T06:20:54.343Z,114.50
2018-03-04T06:23:23.411Z,109.47
2018-03-04T06:25:51.684Z,116.07
2018-03-04T06:28:19.962Z,98.03
2018-03-04T06:30:48.214Z,109.70
2018-03-04T06:33:16.504Z,98.57
2018-03-04T06:35:44.765Z,112.07
2018-03-04T06:38:13.038Z,110.53
2018-03-04T06:40:41.300Z,121.03
2018-03-04T06:43:09.564Z,117.53
2018-03-04T06:45:37.845Z,87.07
2018-03-04T06:48:06.107Z,104.17
2018-03-04T06:50:34.372Z,94.53
2018-03-04T06:53:02.640Z,104.23
2018-03-04T06:55:31.687Z,97.80
2018-03-04T06:58:00.014Z,119.80
2018-03-04T07:00:28.268Z,113.40
2018-03-04T07:02:56.534Z,103.40
2018-03-04T07:05:24.797Z,121.57
2018-03-04T07:07:53.091Z,130.67
2018-03-04T07:10:21.365Z,127.43
2018-03-04T07:12:49.643Z,125.70
2018-03-04T07:15:17.939Z,151.03
2018-03-04T07:17:46.960Z,139.53
2018-03-04T07:20:15.236Z,115.63
2018-03-04T07:22:43.489Z,121.13
2018-03-04T07:25:12.516Z,101.60
2018-03-04T07:27:40.829Z,103.33
2018-03-04T07:30:09.079Z,119.37
2018-03-04T07:32:37.343Z,138.50
2018-03-04T07:35:05.669Z,125.33
2018-03-04T07:37:33.902Z,105.53
2018-03-04T07:40:02.209Z,106.50
2018-03-04T07:42:30.485Z,139.13
2018-03-04T07:44:58.749Z,100.53
2018-03-04T07:47:27.037Z,117.00
2018-03-04T07:49:55.288Z,110.93
2018-03-04T07:52:23.615Z,111.57
2018-03-04T07:54:51.841Z,119.30
2018-03-04T07:57:21.450Z,126.03
2018-03-04T07:59:49.724Z,95.10
2018-03-04T08:02:17.996Z,124.83
2018-03-04T08:04:46.265Z,102.27
2018-03-04T08:07:14.529Z,130.77
2018-03-04T08:09:42.782Z,131.53
2018-03-04T08:12:11.836Z,119.03
2018-03-04T08:14:40.093Z,139.60
2018-03-04T08:17:08.375Z,134.17
2018-03-04T08:19:36.649Z,137.17
2018-03-04T08:22:04.926Z,145.43
2018-03-04T08:24:39.710Z,136.30
2018-03-04T08:27:26.544Z,109.67
2018-03-04T08:29:54.815Z,138.50
2018-03-04T08:32:23.080Z,114.53
2018-03-04T08:34:52.129Z,134.07
2018-03-04T08:37:21.396Z,123.38
2018-03-04T08:39:49.659Z,142.80
2018-03-04T08:42:17.952Z,116.40
2018-03-04T08:44:46.236Z,108.73
2018-03-04T08:47:14.500Z,155.00
2018-03-04T08:49:42.773Z,129.23
2018-03-04T08:52:11.045Z,114.07
2018-03-04T08:54:39.306Z,113.97
2018-03-04T08:57:08.351Z,117.03
2018-03-04T08:59:36.643Z,101.22
2018-03-04T09:02:05.685Z,167.03
2018-03-04T09:04:33.968Z,148.03
2018-03-04T09:07:02.247Z,103.47
2018-03-04T09:09:30.528Z,176.90
2018-03-04T09:11:58.807Z,120.23
2018-03-04T09:14:27.088Z,115.77
2018-03-04T09:16:56.064Z,137.17
2018-03-04T09:19:24.343Z,151.63
2018-03-04T09:21:52.604Z,140.10
2018-03-04T09:24:20.879Z,128.50
2018-03-04T09:26:49.172Z,328.97
2018-03-04T09:29:17.432Z,118.03
2018-03-04T09:31:45.699Z,111.83
2018-03-04T09:34:13.988Z,137.83
2018-03-04T09:36:42.254Z,176.80
2018-03-04T09:39:10.520Z,107.85
2018-03-04T09:41:39.567Z,132.50
2018-03-04T09:44:07.824Z,123.33
2018-03-04T09:46:36.097Z,112.20
2018-03-04T09:49:04.732Z,123.47
2018-03-04T09:51:33.016Z,109.70
2018-03-04T09:54:02.076Z,109.30
2018-03-04T09:56:30.368Z,109.87
2018-03-04T09:58:59.415Z,109.07
2018-03-04T10:01:27.680Z,107.00
2018-03-04T10:03:55.987Z,101.83
2018-03-04T10:06:24.296Z,117.07
2018-03-04T10:08:52.625Z,128.47
2018-03-04T10:11:20.922Z,101.10
2018-03-04T10:13:49.188Z,106.63
2018-03-04T10:16:17.561Z,113.60
2018-03-04T10:18:45.844Z,97.43
2018-03-04T10:21:14.096Z,187.13
2018-03-04T10:23:42.377Z,115.53
2018-03-04T10:26:10.697Z,110.60
2018-03-04T10:28:38.995Z,112.70
2018-03-04T10:31:08.106Z,113.43
2018-03-04T10:33:37.418Z,98.20
2018-03-04T10:36:07.118Z,127.83
2018-03-04T10:38:36.993Z,119.55
2018-03-04T10:41:06.493Z,98.17
2018-03-04T10:43:35.434Z,94.13
2018-03-04T10:46:03.986Z,136.23
2018-03-04T10:48:33.122Z,144.50
2018-03-04T10:51:01.529Z,113.23
2018-03-04T10:53:30.297Z,84.07
2018-03-04T10:56:00.050Z,97.90
2018-03-04T10:58:29.697Z,115.60
2018-03-04T11:04:11.468Z,108.00
2018-03-04T11:06:41.318Z,109.33
2018-03-04T11:09:11.133Z,100.03
2018-03-04T11:11:40.196Z,88.53
2018-03-04T11:14:10.051Z,192.23
2018-03-04T11:16:40.251Z,101.37
2018-03-04T11:19:10.306Z,96.90
2018-03-04T11:21:40.188Z,111.43
2018-03-04T11:24:10.154Z,135.18
2018-03-04T11:26:39.877Z,104.37
2018-03-04T11:29:09.858Z,154.10
2018-03-04T11:31:39.638Z,100.43
2018-03-04T11:34:10.419Z,98.87
2018-03-04T11:36:40.245Z,120.30
2018-03-04T11:39:10.319Z,88.57
2018-03-04T11:41:40.969Z,109.30
2018-03-04T11:44:11.666Z,102.83
2018-03-04T11:46:41.518Z,106.70
2018-03-04T11:49:11.462Z,106.37
2018-03-04T11:51:41.336Z,80.00
2018-03-04T11:54:12.203Z,87.30
2018-03-04T11:56:41.877Z,93.80
2018-03-04T11:59:13.108Z,79.77
2018-03-04T12:01:42.854Z,86.83
2018-03-04T12:04:12.663Z,95.47
2018-03-04T12:06:42.310Z,95.63
2018-03-04T12:09:12.310Z,114.87
2018-03-04T12:11:42.252Z,87.93
2018-03-04T12:14:12.203Z,89.63
2018-03-04T12:16:42.701Z,97.20
2018-03-04T12:19:12.691Z,99.67
2018-03-04T12:21:42.491Z,124.83
2018-03-04T12:24:12.431Z,98.27
2018-03-04T12:26:42.162Z,110.33
2018-03-04T12:29:12.090Z,81.95
2018-03-04T12:31:42.851Z,101.03
2018-03-04T12:34:12.960Z,87.07
2018-03-04T12:36:43.034Z,86.43
2018-03-04T12:39:12.982Z,86.63
2018-03-04T12:41:42.752Z,81.07
2018-03-04T12:44:12.618Z,95.60
2018-03-04T12:46:42.348Z,92.83
2018-03-04T12:49:12.438Z,74.97
2018-03-04T12:51:43.235Z,79.77
2018-03-04T12:54:13.368Z,85.85
2018-03-04T12:56:43.336Z,89.57
2018-03-04T12:59:13.496Z,66.93
2018-03-04T13:01:43.370Z,80.67
2018-03-04T13:04:13.416Z,96.67
2018-03-04T13:06:43.211Z,91.77
2018-03-04T13:09:13.292Z,86.30
2018-03-04T13:11:44.206Z,82.83
2018-03-04T13:14:14.962Z,94.32
2018-03-04T13:16:45.932Z,81.83
2018-03-04T13:19:15.962Z,82.13
2018-03-04T13:21:45.897Z,76.97
2018-03-04T13:24:15.942Z,83.87
2018-03-04T13:26:46.615Z,117.73
2018-03-04T13:29:16.618Z,113.23
2018-03-04T13:31:46.588Z,95.40
2018-03-04T13:34:16.692Z,103.00
2018-03-04T13:36:47.923Z,94.07
2018-03-04T13:39:17.909Z,81.27
2018-03-04T13:41:48.814Z,76.60
2018-03-04T13:44:18.961Z,92.60
2018-03-04T13:46:48.741Z,89.40
2018-03-04T13:49:18.575Z,82.70
2018-03-04T13:51:48.510Z,73.03
2018-03-04T13:54:18.481Z,71.53
2018-03-04T13:56:48.311Z,70.40
2018-03-04T13:59:18.176Z,69.80
2018-03-04T14:01:48.103Z,74.67
2018-03-04T14:04:18.298Z,57.27
2018-03-04T14:06:48.063Z,63.93
2018-03-04T14:09:19.547Z,65.40
2018-03-04T14:11:49.445Z,57.03
2018-03-04T14:14:20.175Z,61.73
2018-03-04T14:16:50.083Z,63.43
2018-03-04T14:19:20.703Z,65.50
2018-03-04T14:21:50.628Z,68.93
2018-03-04T14:24:21.261Z,59.10
2018-03-04T14:26:51.905Z,68.37
2018-03-04T14:29:22.685Z,72.93
2018-03-04T14:31:52.477Z,62.93
2018-03-04T14:34:22.424Z,58.27
2018-03-04T14:36:52.388Z,62.67
2018-03-04T14:39:22.148Z,75.27
2018-03-04T14:41:52.117Z,72.93
2018-03-04T14:44:22.819Z,59.73
2018-03-04T14:46:52.615Z,75.40
2018-03-04T14:49:22.566Z,68.70
2018-03-04T14:51:53.245Z,68.53
2018-03-04T14:54:23.298Z,82.93
2018-03-04T14:56:53.148Z,71.97
2018-03-04T14:59:23.046Z,50.37
2018-03-04T15:01:53.653Z,57.60
2018-03-04T15:04:23.613Z,59.70
2018-03-04T15:06:53.502Z,61.90
2018-03-04T15:09:24.232Z,65.73
2018-03-04T15:11:54.957Z,64.13
2018-03-04T15:14:24.948Z,68.47
2018-03-04T15:16:55.697Z,80.03
2018-03-04T15:19:27.466Z,61.63
2018-03-04T15:21:57.363Z,53.23
2018-03-04T15:24:27.294Z,69.23
2018-03-04T15:26:58.241Z,55.90
2018-03-04T15:29:29.153Z,74.53
2018-03-04T15:31:59.043Z,60.90
2018-03-04T15:34:29.135Z,76.53
2018-03-04T15:36:59.045Z,60.83
2018-03-04T15:39:29.107Z,63.33
2018-03-04T15:41:58.958Z,57.50
2018-03-04T15:44:29.540Z,53.57
2018-03-04T15:46:59.142Z,53.43
2018-03-04T15:49:29.207Z,57.90
2018-03-04T15:52:00.159Z,53.33
2018-03-04T15:54:30.213Z,49.47
2018-03-04T15:57:00.697Z,58.40
2018-03-04T15:59:31.436Z,62.20
2018-03-04T16:02:02.137Z,71.10
2018-03-04T16:04:32.412Z,72.33
2018-03-04T16:07:02.219Z,58.20
2018-03-04T16:09:32.260Z,69.73
2018-03-04T16:12:02.135Z,64.47
2018-03-04T16:14:33.078Z,71.50
2018-03-04T16:17:03.597Z,76.40
2018-03-04T16:19:34.455Z,75.67
2018-03-04T16:22:04.471Z,77.67
2018-03-04T16:24:34.515Z,73.10
2018-03-04T16:27:05.220Z,72.00
2018-03-04T16:29:35.192Z,73.50
2018-03-04T16:32:05.038Z,63.97
2018-03-04T16:34:35.340Z,63.37
2018-03-04T16:37:06.212Z,64.47
2018-03-04T16:39:36.355Z,79.67
2018-03-04T16:42:06.324Z,91.17
2018-03-04T16:44:37.084Z,62.72
2018-03-04T16:47:07.031Z,68.23
2018-03-04T16:49:37.000Z,60.50
2018-03-04T16:52:06.837Z,62.60
2018-03-04T16:54:36.820Z,56.07
2018-03-04T16:57:06.642Z,80.33
2018-03-04T16:59:36.395Z,63.23
2018-03-04T17:02:06.496Z,67.37
2018-03-04T17:04:36.813Z,74.57
2018-03-04T17:07:06.747Z,66.70
2018-03-04T17:09:36.692Z,73.10
2018-03-04T17:12:06.032Z,69.53
2018-03-04T17:14:35.709Z,59.13
2018-03-04T17:17:05.152Z,52.83
2018-03-04T17:19:34.525Z,71.63
2018-03-04T17:22:04.784Z,71.33
2018-03-04T17:24:34.105Z,61.60
2018-03-04T17:27:03.378Z,54.73
2018-03-04T17:29:33.703Z,55.50
2018-03-04T17:32:02.983Z,52.87
2018-03-04T17:34:33.148Z,50.00
2018-03-04T17:37:02.544Z,83.53
2018-03-04T17:39:31.966Z,59.00
2018-03-04T17:42:01.333Z,71.03
2018-03-04T17:44:30.779Z,62.67
2018-03-04T17:47:00.258Z,61.17
2018-03-04T17:49:29.574Z,85.27
2018-03-04T17:51:58.862Z,66.57
2018-03-04T17:54:28.300Z,78.03
2018-03-04T17:56:58.401Z,95.47
2018-03-04T17:59:29.265Z,113.97
2018-03-04T18:01:59.907Z,79.27
2018-03-04T18:04:29.852Z,60.67
2018-03-04T18:06:59.871Z,58.50
2018-03-04T18:09:30.419Z,77.73
2018-03-04T18:12:00.388Z,58.20
2018-03-04T18:14:30.593Z,52.23
2018-03-04T18:17:01.036Z,65.77
2018-03-04T18:19:31.479Z,51.10
2018-03-04T18:22:00.743Z,60.10
2018-03-04T18:24:30.976Z,54.00
2018-03-04T18:27:01.517Z,51.13
2018-03-04T18:29:31.370Z,61.37
2018-03-04T18:32:01.254Z,68.80
2018-03-04T18:34:31.137Z,66.47
2018-03-04T18:37:01.821Z,83.90
2018-03-04T18:39:31.888Z,90.80
2018-03-04T18:42:02.521Z,92.10
2018-03-04T18:44:32.854Z,67.17
2018-03-04T18:47:03.695Z,77.50
2018-03-04T18:49:34.717Z,75.50
2018-03-04T18:52:05.227Z,51.27
2018-03-04T18:54:36.724Z,65.87
2018-03-04T18:57:07.379Z,49.50
2018-03-04T18:59:37.196Z,60.57
2018-03-04T19:02:07.222Z,50.57
2018-03-04T19:04:36.766Z,57.15
2018-03-04T19:07:07.379Z,46.37
2018-03-04T19:09:37.161Z,45.40
2018-03-04T19:12:07.964Z,80.03
2018-03-04T19:14:38.112Z,54.57
2018-03-04T19:17:08.424Z,54.73
2018-03-04T19:19:38.590Z,45.50
2018-03-04T19:22:07.864Z,40.50
2018-03-04T19:24:37.181Z,60.63
2018-03-04T19:27:06.598Z,45.30
2018-03-04T19:29:37.222Z,43.40
2018-03-04T19:32:07.639Z,55.47
2018-03-04T19:34:36.987Z,84.90
2018-03-04T19:37:08.185Z,67.63
2018-03-04T19:39:37.533Z,44.77
2018-03-04T19:42:06.878Z,52.00
2018-03-04T19:44:36.274Z,64.13
2018-03-04T19:47:05.717Z,246.07
2018-03-04T19:49:35.904Z,70.07
2018-03-04T19:52:05.462Z,58.37
2018-03-04T19:54:35.515Z,71.03
2018-03-04T19:57:05.802Z,43.27
2018-03-04T19:59:35.873Z,44.60
2018-03-04T20:02:05.745Z,53.67
2018-03-04T20:04:35.650Z,38.70
2018-03-04T20:07:06.545Z,41.40
2018-03-04T20:09:37.543Z,45.03
2018-03-04T20:12:07.458Z,54.73
2018-03-04T20:14:37.498Z,47.70
2018-03-04T20:17:07.534Z,54.33
2018-03-04T20:19:37.449Z,45.60
2018-03-04T20:22:07.598Z,48.07
2018-03-04T20:24:37.736Z,43.00
2018-03-04T20:27:07.723Z,41.27
2018-03-04T20:29:38.555Z,36.13
2018-03-04T20:32:08.756Z,40.87
2018-03-04T20:34:38.338Z,48.43
2018-03-04T20:37:07.652Z,56.70
2018-03-04T20:39:36.974Z,80.93
2018-03-04T20:42:07.198Z,75.93
2018-03-04T20:44:37.384Z,56.03
2018-03-04T20:47:06.890Z,62.80
2018-03-04T20:49:36.218Z,76.87
2018-03-04T20:52:05.556Z,63.67
2018-03-04T20:54:35.736Z,46.53
2018-03-04T20:57:05.038Z,46.70
2018-03-04T20:59:34.456Z,55.50
2018-03-04T21:02:03.766Z,50.93
2018-03-04T21:04:33.900Z,43.03
2018-03-04T21:07:04.176Z,53.07
2018-03-04T21:09:33.610Z,45.67
2018-03-04T21:12:03.730Z,53.53
2018-03-04T21:14:34.757Z,51.13
2018-03-04T21:17:04.939Z,46.73
2018-03-04T21:19:34.390Z,56.93
2018-03-04T21:22:04.619Z,74.37
2018-03-04T21:24:34.812Z,66.23
2018-03-04T21:27:04.125Z,51.50
2018-03-04T21:29:33.451Z,67.57
2018-03-04T21:32:03.533Z,44.60
2018-03-04T21:34:32.827Z,44.23
2018-03-04T21:37:02.143Z,38.87
2018-03-04T21:39:31.726Z,39.80
2018-03-04T21:42:01.014Z,46.13
2018-03-04T21:44:30.334Z,58.97
2018-03-04T21:46:59.779Z,57.17
2018-03-04T21:49:29.855Z,42.10
2018-03-04T21:51:59.204Z,51.07
2018-03-04T21:54:29.391Z,40.85
2018-03-04T21:56:59.699Z,34.30
2018-03-04T21:59:28.969Z,43.63
2018-03-04T22:01:58.236Z,39.53
2018-03-04T22:04:28.474Z,49.97
2018-03-04T22:06:57.752Z,56.70
2018-03-04T22:09:27.839Z,44.20
2018-03-04T22:11:57.046Z,41.33
2018-03-04T22:14:26.340Z,52.23
2018-03-04T22:16:55.485Z,41.80
2018-03-04T22:19:25.438Z,42.70
2018-03-04T22:21:54.684Z,41.40
2018-03-04T22:24:23.101Z,35.27
2018-03-04T22:26:51.580Z,40.17
2018-03-04T22:29:19.889Z,37.33
2018-03-04T22:31:48.142Z,39.53
2018-03-04T22:34:16.419Z,37.43
2018-03-04T22:36:44.677Z,47.57
2018-03-04T22:39:12.952Z,46.57
2018-03-04T22:41:41.211Z,49.67
2018-03-04T22:44:09.509Z,54.73
2018-03-04T22:46:37.777Z,52.60
2018-03-04T22:49:06.052Z,51.80
2018-03-04T22:51:34.339Z,47.73
2018-03-04T22:54:02.608Z,45.60
2018-03-04T22:56:30.866Z,42.97
2018-03-04T22:58:59.150Z,40.67
2018-03-04T23:01:27.400Z,51.27
2018-03-04T23:03:55.712Z,48.03
2018-03-04T23:06:24.013Z,43.77
2018-03-04T23:08:52.314Z,68.97
2018-03-04T23:11:21.333Z,63.53
2018-03-04T23:13:49.614Z,55.77
2018-03-04T23:16:17.891Z,45.43
2018-03-04T23:18:55.069Z,50.27
2018-03-04T23:21:23.353Z,52.77
2018-03-04T23:23:51.616Z,57.77
2018-03-04T23:26:19.964Z,52.33
2018-03-04T23:28:48.281Z,47.60
2018-03-04T23:31:16.548Z,49.37
2018-03-04T23:33:44.855Z,41.87
2018-03-04T23:36:13.109Z,51.70
2018-03-04T23:38:41.381Z,42.23
2018-03-04T23:41:09.636Z,52.43
2018-03-04T23:43:38.693Z,44.47
2018-03-04T23:46:06.944Z,45.43
2018-03-04T23:48:35.223Z,45.67
2018-03-04T23:51:03.492Z,65.57
2018-03-04T23:53:31.748Z,57.90
2018-03-04T23:56:00.017Z,49.63
2018-03-04T23:58:28.280Z,66.27
